Time;durP1;ratioP1;P1;durP2;ratioP2;P2;SDS_P1;SDS_P2;PMS_P1;PMS_P2;Temp;Humidity;BMP_temperature;BMP_pressure;BME280_temperature;BME280_humidity;BME280_pressure;Samples;Min_cycle;Max_cycle;Signal;HPM_P1;HPM_P2
2023/05/10 00:00:46;;;;;;;14.55;3.15;;;;;;;;;;4986626;28;20076;-60
2023/05/10 00:04:27;;;;;;;11.07;3.30;;;;;;;;;;4989552;28;20058;-62
2023/05/10 00:08:06;;;;;;;14.02;3.50;;;;;;;;;;4988870;28;20064;-60
2023/05/10 00:11:46;;;;;;;16.33;3.30;;;;;;;;;;4990459;28;20907;-61
2023/05/10 00:15:34;;;;;;;9.77;3.20;;;;;;;;;;4990401;28;20056;-63
2023/05/10 00:19:13;;;;;;;9.90;2.95;;;;;;;;;;4988502;28;20057;-60
2023/05/10 00:22:53;;;;;;;12.00;2.80;;;;;;;;;;4986209;28;20121;-62
2023/05/10 00:26:34;;;;;;;10.05;3.30;;;;;;;;;;4994648;28;20054;-61
2023/05/10 00:30:14;;;;;;;10.80;3.30;;;;;;;;;;4988858;28;21209;-62
2023/05/10 00:33:54;;;;;;;12.55;2.95;;;;;;;;;;4991724;28;20261;-60
2023/05/10 00:37:34;;;;;;;14.20;3.20;;;;;;;;;;4989672;28;20069;-62
2023/05/10 00:41:15;;;;;;;8.18;2.88;;;;;;;;;;4988517;28;20514;-59
2023/05/10 00:44:56;;;;;;;10.95;3.08;;;;;;;;;;4986666;28;20054;-61
2023/05/10 00:48:36;;;;;;;14.43;3.60;;;;;;;;;;4987141;28;20302;-61
2023/05/10 00:52:18;;;;;;;11.23;3.42;;;;;;;;;;4987255;28;20083;-61
2023/05/10 00:55:59;;;;;;;12.77;3.33;;;;;;;;;;4987193;28;20051;-61
2023/05/10 00:59:40;;;;;;;15.82;3.55;;;;;;;;;;4991834;28;20095;-61
2023/05/10 01:03:21;;;;;;;9.25;3.30;;;;;;;;;;4987745;28;20120;-61
2023/05/10 01:07:02;;;;;;;8.95;3.10;;;;;;;;;;4989601;28;20081;-60
2023/05/10 01:10:42;;;;;;;11.68;3.35;;;;;;;;;;4988481;28;20299;-63
2023/05/10 01:14:22;;;;;;;7.22;3.05;;;;;;;;;;4986859;28;20535;-62
2023/05/10 01:18:03;;;;;;;9.60;3.13;;;;;;;;;;4989912;28;20049;-63
2023/05/10 01:21:12;;;;;;;9.25;3.17;;;;;;;;;;4993508;28;20124;-67
2023/05/10 01:24:34;;;;;;;10.98;3.60;;;;;;;;;;4989430;28;20690;-60
2023/05/10 01:28:13;;;;;;;10.55;3.05;;;;;;;;;;4986759;28;20045;-61
2023/05/10 01:31:55;;;;;;;10.70;3.83;;;;;;;;;;4988251;28;20057;-61
2023/05/10 01:35:39;;;;;;;10.43;3.65;;;;;;;;;;4987936;28;20469;-61
2023/05/10 01:39:03;;;;;;;11.70;3.85;;;;;;;;;;4990772;28;20537;-60
2023/05/10 01:42:48;;;;;;;13.18;4.15;;;;;;;;;;4989429;28;20509;-61
2023/05/10 01:46:31;;;;;;;8.90;3.58;;;;;;;;;;4986833;28;20052;-65
2023/05/10 01:50:12;;;;;;;12.82;4.32;;;;;;;;;;4988326;28;20050;-63
2023/05/10 01:53:52;;;;;;;10.50;3.90;;;;;;;;;;4988282;28;20515;-60
2023/05/10 01:57:32;;;;;;;13.40;3.92;;;;;;;;;;4989626;28;20049;-60
2023/05/10 02:01:13;;;;;;;11.27;4.15;;;;;;;;;;4987586;28;20081;-60
2023/05/10 02:04:53;;;;;;;17.90;4.72;;;;;;;;;;4989856;28;20046;-66
2023/05/10 02:08:33;;;;;;;12.32;3.88;;;;;;;;;;4989132;28;20061;-61
2023/05/10 02:12:14;;;;;;;11.85;4.25;;;;;;;;;;4992009;28;20045;-61
2023/05/10 02:15:54;;;;;;;18.95;4.43;;;;;;;;;;4988922;28;20410;-61
2023/05/10 02:19:34;;;;;;;12.35;3.83;;;;;;;;;;4989486;28;20050;-61
2023/05/10 02:23:15;;;;;;;12.50;4.13;;;;;;;;;;4992798;28;20540;-60
2023/05/10 02:26:17;;;;;;;9.95;4.18;;;;;;;;;;4986836;28;20049;-61
2023/05/10 02:28:45;;;;;;;11.80;4.35;;;;;;;;;;4991784;28;20050;-62
2023/05/10 02:31:11;;;;;;;13.00;4.70;;;;;;;;;;4989995;28;20053;-62
2023/05/10 02:33:41;;;;;;;11.50;4.45;;;;;;;;;;4990881;28;20065;-62
2023/05/10 02:36:08;;;;;;;12.10;4.28;;;;;;;;;;4992497;28;20273;-60
2023/05/10 02:38:36;;;;;;;13.30;4.55;;;;;;;;;;4991582;28;20068;-61
2023/05/10 02:41:04;;;;;;;13.90;4.63;;;;;;;;;;4989051;28;20077;-59
2023/05/10 02:43:32;;;;;;;12.45;4.47;;;;;;;;;;4990274;28;20050;-60
2023/05/10 02:45:58;;;;;;;9.75;4.40;;;;;;;;;;4989604;28;20418;-61
2023/05/10 02:48:24;;;;;;;13.85;4.45;;;;;;;;;;4986492;28;20100;-60
2023/05/10 02:50:52;;;;;;;10.27;4.45;;;;;;;;;;4983861;28;20486;-61
2023/05/10 02:53:22;;;;;;;12.52;4.13;;;;;;;;;;4989869;28;20465;-62
2023/05/10 02:55:52;;;;;;;8.75;3.85;;;;;;;;;;4988315;28;20053;-60
2023/05/10 02:58:21;;;;;;;8.88;3.78;;;;;;;;;;4987403;28;22119;-59
2023/05/10 03:00:47;;;;;;;11.90;4.20;;;;;;;;;;4987897;28;20050;-61
2023/05/10 03:03:14;;;;;;;11.48;4.35;;;;;;;;;;4985715;28;20066;-60
2023/05/10 03:05:40;;;;;;;8.48;4.03;;;;;;;;;;4985667;28;20115;-60
2023/05/10 03:08:06;;;;;;;14.00;4.85;;;;;;;;;;4981857;28;20107;-61
2023/05/10 03:10:33;;;;;;;10.95;3.97;;;;;;;;;;4989340;28;20041;-61
2023/05/10 03:13:24;;;;;;;14.60;4.72;;;;;;;;;;4987148;28;20057;-62
2023/05/10 03:16:03;;;;;;;9.88;4.30;;;;;;;;;;4989560;28;20050;-60
2023/05/10 03:18:48;;;;;;;10.55;4.43;;;;;;;;;;4989159;28;20057;-60
2023/05/10 03:21:17;;;;;;;12.75;4.15;;;;;;;;;;4990154;28;21760;-61
2023/05/10 03:23:50;;;;;;;14.45;4.70;;;;;;;;;;4983442;28;20363;-64
2023/05/10 03:26:23;;;;;;;9.90;4.28;;;;;;;;;;4986968;28;20853;-61
2023/05/10 03:28:50;;;;;;;17.07;4.60;;;;;;;;;;4986904;28;20085;-59
2023/05/10 03:31:17;;;;;;;14.07;5.18;;;;;;;;;;4989501;28;20895;-61
2023/05/10 03:33:50;;;;;;;16.85;4.68;;;;;;;;;;4986733;28;20050;-61
2023/05/10 03:36:17;;;;;;;11.02;3.97;;;;;;;;;;4990081;28;20061;-61
2023/05/10 03:38:43;;;;;;;14.88;4.72;;;;;;;;;;4994268;28;21090;-61
2023/05/10 03:41:09;;;;;;;11.27;3.92;;;;;;;;;;4990467;28;20072;-60
2023/05/10 03:43:35;;;;;;;11.95;4.55;;;;;;;;;;4988084;28;20061;-60
2023/05/10 03:46:02;;;;;;;16.38;4.57;;;;;;;;;;4991960;28;20276;-60
2023/05/10 03:48:37;;;;;;;12.95;4.30;;;;;;;;;;4992225;28;20060;-61
2023/05/10 03:51:03;;;;;;;13.80;4.97;;;;;;;;;;4970393;28;20056;-61
2023/05/10 03:53:29;;;;;;;11.95;5.35;;;;;;;;;;4989606;28;20069;-62
2023/05/10 03:55:55;;;;;;;15.38;5.22;;;;;;;;;;4987459;28;20124;-61
2023/05/10 03:58:21;;;;;;;18.17;5.80;;;;;;;;;;4989145;28;20176;-60
2023/05/10 04:00:49;;;;;;;13.85;4.68;;;;;;;;;;4991551;28;20065;-61
2023/05/10 04:03:15;;;;;;;11.68;4.97;;;;;;;;;;4981411;28;20733;-61
2023/05/10 04:05:41;;;;;;;12.18;5.20;;;;;;;;;;5008538;28;20045;-62
2023/05/10 04:08:07;;;;;;;18.70;5.47;;;;;;;;;;5010005;28;20049;-61
2023/05/10 04:10:33;;;;;;;10.60;5.10;;;;;;;;;;5008596;28;21295;-60
2023/05/10 04:12:59;;;;;;;12.50;4.97;;;;;;;;;;5009322;28;20053;-61
2023/05/10 04:15:25;;;;;;;15.05;5.35;;;;;;;;;;5009058;28;20064;-62
2023/05/10 04:17:51;;;;;;;12.45;5.65;;;;;;;;;;5010272;28;20057;-61
2023/05/10 04:20:17;;;;;;;15.88;5.30;;;;;;;;;;5018942;28;20079;-61
2023/05/10 04:22:44;;;;;;;15.98;5.93;;;;;;;;;;5023049;28;20061;-61
2023/05/10 04:25:10;;;;;;;20.13;5.63;;;;;;;;;;5015247;28;20420;-61
2023/05/10 04:27:36;;;;;;;16.52;5.28;;;;;;;;;;5009149;28;22110;-64
2023/05/10 04:30:03;;;;;;;15.45;5.32;;;;;;;;;;5006953;28;20151;-62
2023/05/10 04:32:30;;;;;;;19.55;6.20;;;;;;;;;;5009005;28;20754;-59
2023/05/10 04:34:55;;;;;;;14.23;5.90;;;;;;;;;;5013241;28;20394;-60
2023/05/10 04:37:23;;;;;;;12.32;4.88;;;;;;;;;;4991732;28;20512;-61
2023/05/10 04:40:29;;;;;;;16.50;5.65;;;;;;;;;;5009622;28;20072;-62
2023/05/10 04:44:09;;;;;;;11.40;5.22;;;;;;;;;;5007978;28;20132;-62
2023/05/10 04:47:49;;;;;;;12.48;4.90;;;;;;;;;;5004504;28;20487;-62
2023/05/10 04:51:30;;;;;;;15.60;4.95;;;;;;;;;;5005474;28;20038;-61
2023/05/10 04:54:30;;;;;;;13.93;5.40;;;;;;;;;;5001058;28;20155;-60
2023/05/10 04:56:56;;;;;;;17.98;7.75;;;;;;;;;;5006090;28;20335;-67
2023/05/10 04:59:22;;;;;;;17.50;7.82;;;;;;;;;;5006260;28;20057;-61
2023/05/10 05:01:49;;;;;;;18.02;8.23;;;;;;;;;;5007820;28;20056;-62
2023/05/10 05:04:15;;;;;;;13.50;7.25;;;;;;;;;;4990005;28;20050;-61
2023/05/10 05:06:41;;;;;;;19.48;7.13;;;;;;;;;;4988564;28;21356;-60
2023/05/10 05:09:07;;;;;;;14.25;6.93;;;;;;;;;;4973859;28;20089;-61
2023/05/10 05:11:33;;;;;;;13.25;6.00;;;;;;;;;;4972505;28;20099;-61
2023/05/10 05:13:59;;;;;;;18.20;7.80;;;;;;;;;;4989563;28;20497;-60
2023/05/10 05:16:25;;;;;;;22.30;7.93;;;;;;;;;;4988517;28;20347;-60
2023/05/10 05:18:51;;;;;;;18.05;7.63;;;;;;;;;;4994179;28;20549;-62
2023/05/10 05:21:18;;;;;;;15.05;8.15;;;;;;;;;;4990227;28;20679;-60
2023/05/10 05:23:44;;;;;;;16.98;8.05;;;;;;;;;;4993156;28;20077;-60
2023/05/10 05:26:11;;;;;;;19.58;7.60;;;;;;;;;;4989953;28;22589;-62
2023/05/10 05:28:37;;;;;;;19.58;6.57;;;;;;;;;;4990543;28;20278;-65
2023/05/10 05:31:05;;;;;;;22.75;6.65;;;;;;;;;;4988713;28;20176;-61
2023/05/10 05:33:31;;;;;;;21.88;6.57;;;;;;;;;;4991069;28;20150;-61
2023/05/10 05:36:00;;;;;;;13.73;5.65;;;;;;;;;;4991489;28;20077;-61
2023/05/10 05:38:27;;;;;;;19.08;6.07;;;;;;;;;;4992122;28;20162;-65
2023/05/10 05:40:53;;;;;;;13.05;5.50;;;;;;;;;;4968664;28;20049;-65
2023/05/10 05:43:19;;;;;;;21.40;6.10;;;;;;;;;;4992314;28;20053;-66
2023/05/10 05:45:45;;;;;;;15.07;5.10;;;;;;;;;;4991389;28;20065;-66
2023/05/10 05:48:11;;;;;;;14.60;5.50;;;;;;;;;;4971937;28;20054;-65
2023/05/10 05:50:38;;;;;;;11.80;4.68;;;;;;;;;;4986245;28;20053;-64
2023/05/10 05:53:05;;;;;;;14.50;5.05;;;;;;;;;;4992970;28;20487;-66
2023/05/10 05:55:31;;;;;;;12.65;4.65;;;;;;;;;;4990494;28;20058;-65
2023/05/10 05:57:58;;;;;;;14.10;4.75;;;;;;;;;;4992653;28;20064;-64
2023/05/10 06:00:24;;;;;;;13.55;4.57;;;;;;;;;;4988004;28;20054;-64
2023/05/10 06:02:51;;;;;;;16.52;4.55;;;;;;;;;;4987697;28;20054;-66
2023/05/10 06:05:17;;;;;;;13.02;3.95;;;;;;;;;;4981876;28;20175;-65
2023/05/10 06:07:45;;;;;;;11.05;3.80;;;;;;;;;;4987781;28;20058;-65
2023/05/10 06:10:12;;;;;;;9.70;3.85;;;;;;;;;;4990187;28;20060;-66
2023/05/10 06:12:39;;;;;;;8.68;3.60;;;;;;;;;;4986547;28;20065;-64
2023/05/10 06:15:10;;;;;;;11.43;3.05;;;;;;;;;;4988159;28;20049;-65
2023/05/10 06:17:39;;;;;;;8.90;3.42;;;;;;;;;;4983952;28;20058;-66
2023/05/10 06:20:08;;;;;;;9.82;3.88;;;;;;;;;;4992656;28;20046;-66
2023/05/10 06:22:34;;;;;;;11.98;3.38;;;;;;;;;;4983716;28;20062;-64
2023/05/10 06:25:00;;;;;;;9.13;2.83;;;;;;;;;;4985479;28;20758;-65
2023/05/10 06:27:28;;;;;;;5.78;2.72;;;;;;;;;;4987199;28;20171;-69
2023/05/10 06:29:53;;;;;;;7.15;2.72;;;;;;;;;;4988339;28;20050;-65
2023/05/10 06:32:20;;;;;;;9.82;2.75;;;;;;;;;;4985050;28;20107;-64
2023/05/10 06:34:47;;;;;;;5.65;2.63;;;;;;;;;;4985214;28;20050;-67
2023/05/10 06:37:13;;;;;;;10.35;2.88;;;;;;;;;;4985159;28;20058;-67
2023/05/10 06:39:40;;;;;;;5.35;2.50;;;;;;;;;;4986230;28;20049;-69
2023/05/10 06:42:07;;;;;;;6.43;2.42;;;;;;;;;;4984356;28;20058;-69
2023/05/10 06:44:33;;;;;;;11.15;2.05;;;;;;;;;;4983273;28;20080;-65
2023/05/10 06:46:59;;;;;;;6.50;2.20;;;;;;;;;;4982142;28;20058;-63
2023/05/10 06:49:28;;;;;;;10.65;1.98;;;;;;;;;;4982991;28;20050;-64
2023/05/10 06:51:55;;;;;;;5.47;1.50;;;;;;;;;;4987936;28;20062;-66
2023/05/10 06:54:21;;;;;;;3.60;1.52;;;;;;;;;;4987104;28;20156;-64
2023/05/10 06:56:49;;;;;;;8.98;1.65;;;;;;;;;;4986801;28;20077;-67
2023/05/10 06:59:16;;;;;;;5.13;1.50;;;;;;;;;;4983028;28;20046;-64
2023/05/10 07:01:42;;;;;;;6.50;1.65;;;;;;;;;;4983343;28;20325;-65
2023/05/10 07:04:09;;;;;;;7.47;1.63;;;;;;;;;;4988223;28;20506;-66
2023/05/10 07:06:35;;;;;;;5.15;1.80;;;;;;;;;;4984025;28;20178;-66
2023/05/10 07:09:03;;;;;;;9.18;1.40;;;;;;;;;;4990141;28;20046;-66
2023/05/10 07:11:29;;;;;;;5.15;1.50;;;;;;;;;;4985632;28;20128;-66
2023/05/10 07:13:55;;;;;;;12.80;2.22;;;;;;;;;;4987007;28;20131;-65
2023/05/10 07:16:23;;;;;;;3.72;1.52;;;;;;;;;;4987411;28;20045;-65
2023/05/10 07:18:50;;;;;;;9.88;1.73;;;;;;;;;;4990329;28;20042;-67
2023/05/10 07:21:16;;;;;;;6.57;1.40;;;;;;;;;;4990988;28;20170;-66
2023/05/10 07:24:23;;;;;;;5.75;1.40;;;;;;;;;;4984241;28;20667;-65
2023/05/10 07:26:54;;;;;;;4.15;1.50;;;;;;;;;;4980278;28;20098;-65
2023/05/10 07:29:19;;;;;;;7.32;1.60;;;;;;;;;;4984684;28;20089;-65
2023/05/10 07:32:26;;;;;;;6.03;1.35;;;;;;;;;;4980980;28;20050;-69
2023/05/10 07:36:00;;;;;;;6.63;1.50;;;;;;;;;;4984694;28;20064;-66
2023/05/10 07:39:40;;;;;;;9.50;1.90;;;;;;;;;;4984125;28;20511;-65
2023/05/10 07:43:20;;;;;;;6.28;2.65;;;;;;;;;;4987594;28;20133;-68
2023/05/10 07:47:00;;;;;;;9.13;2.92;;;;;;;;;;4984446;28;20046;-66
2023/05/10 07:50:42;;;;;;;14.85;3.08;;;;;;;;;;4988024;28;20130;-65
2023/05/10 07:54:23;;;;;;;5.10;2.38;;;;;;;;;;4984620;28;20514;-64
2023/05/10 07:58:03;;;;;;;12.27;2.83;;;;;;;;;;4989042;28;20049;-67
2023/05/10 08:01:43;;;;;;;9.38;2.90;;;;;;;;;;4985325;28;20042;-66
2023/05/10 08:05:23;;;;;;;7.15;2.60;;;;;;;;;;4988333;28;20038;-65
2023/05/10 08:09:04;;;;;;;6.05;2.40;;;;;;;;;;4984777;28;20057;-66
2023/05/10 08:12:44;;;;;;;10.05;2.35;;;;;;;;;;4981475;28;20224;-61
2023/05/10 08:16:25;;;;;;;11.10;2.80;;;;;;;;;;4986319;28;20441;-63
2023/05/10 08:20:05;;;;;;;6.45;2.70;;;;;;;;;;4988264;28;20061;-64
2023/05/10 08:23:45;;;;;;;7.97;2.10;;;;;;;;;;4987807;28;20070;-62
2023/05/10 08:27:25;;;;;;;14.55;2.65;;;;;;;;;;4987096;28;20049;-63
2023/05/10 08:31:06;;;;;;;5.97;2.30;;;;;;;;;;4986432;28;20049;-63
2023/05/10 08:34:46;;;;;;;10.18;2.40;;;;;;;;;;4990260;28;20127;-62
2023/05/10 08:38:26;;;;;;;13.57;2.53;;;;;;;;;;4988169;28;20053;-61
2023/05/10 08:42:08;;;;;;;7.20;2.65;;;;;;;;;;4986489;28;20050;-63
2023/05/10 08:45:47;;;;;;;9.68;2.45;;;;;;;;;;4988407;28;20077;-62
2023/05/10 08:49:27;;;;;;;10.57;2.65;;;;;;;;;;4989540;28;20080;-62
2023/05/10 08:53:08;;;;;;;4.63;2.08;;;;;;;;;;4987252;28;20049;-63
2023/05/10 08:56:48;;;;;;;10.57;2.45;;;;;;;;;;4987612;28;20061;-62
2023/05/10 09:00:30;;;;;;;7.13;2.38;;;;;;;;;;4989976;28;20056;-62
2023/05/10 09:04:11;;;;;;;15.82;2.80;;;;;;;;;;4987105;28;20460;-64
2023/05/10 09:07:51;;;;;;;9.23;2.80;;;;;;;;;;4987692;28;20740;-62
2023/05/10 09:11:31;;;;;;;6.53;2.45;;;;;;;;;;4988154;28;20081;-63
2023/05/10 09:15:11;;;;;;;7.57;2.95;;;;;;;;;;4986756;28;20451;-62
2023/05/10 09:18:52;;;;;;;7.90;2.45;;;;;;;;;;4989201;28;20061;-64
2023/05/10 09:22:32;;;;;;;8.23;2.20;;;;;;;;;;4988934;28;20196;-61
2023/05/10 09:26:21;;;;;;;9.82;2.03;;;;;;;;;;4986102;28;20060;-61
2023/05/10 09:30:01;;;;;;;9.68;2.40;;;;;;;;;;4987039;28;20815;-62
2023/05/10 09:33:42;;;;;;;8.45;2.40;;;;;;;;;;4987027;28;20050;-61
2023/05/10 09:37:31;;;;;;;7.53;2.40;;;;;;;;;;4989311;28;20582;-62
2023/05/10 09:41:12;;;;;;;9.02;2.13;;;;;;;;;;4987975;28;20046;-65
2023/05/10 09:44:52;;;;;;;11.20;2.33;;;;;;;;;;4990096;28;20421;-70
2023/05/10 09:48:32;;;;;;;7.63;2.20;;;;;;;;;;4988711;28;20053;-62
2023/05/10 09:52:25;;;;;;;4.10;2.03;;;;;;;;;;4986325;28;20378;-64
2023/05/10 09:56:18;;;;;;;7.40;2.40;;;;;;;;;;4987047;28;20053;-64
2023/05/10 09:59:59;;;;;;;8.43;1.77;;;;;;;;;;4988165;28;20115;-62
2023/05/10 10:03:39;;;;;;;7.43;2.30;;;;;;;;;;4987368;28;20825;-63
2023/05/10 10:07:19;;;;;;;4.70;1.95;;;;;;;;;;4987471;28;20054;-64
2023/05/10 10:11:00;;;;;;;5.28;2.10;;;;;;;;;;4996569;28;20064;-66
2023/05/10 10:14:40;;;;;;;5.57;1.95;;;;;;;;;;4990293;28;20053;-63
2023/05/10 10:18:26;;;;;;;9.32;2.15;;;;;;;;;;4989416;28;20096;-63
2023/05/10 10:22:01;;;;;;;7.70;2.75;;;;;;;;;;4992381;28;20135;-62
2023/05/10 10:25:41;;;;;;;7.95;2.20;;;;;;;;;;4985754;28;20046;-68
2023/05/10 10:29:48;;;;;;;12.50;2.22;;;;;;;;;;4987153;28;20417;-62
2023/05/10 10:33:32;;;;;;;11.50;2.77;;;;;;;;;;4986366;28;20056;-63
2023/05/10 10:37:12;;;;;;;24.08;2.17;;;;;;;;;;4985891;28;20541;-62
2023/05/10 10:41:09;;;;;;;10.35;2.40;;;;;;;;;;4986211;28;20145;-64
2023/05/10 10:44:25;;;;;;;10.57;1.95;;;;;;;;;;4984946;28;20199;-69
2023/05/10 10:48:04;;;;;;;9.80;1.98;;;;;;;;;;4986458;28;20064;-63
2023/05/10 10:51:44;;;;;;;6.40;1.55;;;;;;;;;;4984552;28;20171;-62
2023/05/10 10:55:10;;;;;;;14.20;4.18;;;;;;;;;;4986057;28;20064;-62
2023/05/10 10:58:53;;;;;;;12.57;3.10;;;;;;;;;;4985351;28;20077;-66
2023/05/10 11:02:30;;;;;;;13.77;3.67;;;;;;;;;;4984899;28;20114;-64
2023/05/10 11:06:07;;;;;;;14.98;5.22;;;;;;;;;;4987181;28;20103;-63
2023/05/10 11:09:49;;;;;;;10.90;2.97;;;;;;;;;;4984539;28;20430;-63
2023/05/10 11:13:33;;;;;;;13.30;2.33;;;;;;;;;;4984574;28;20108;-64
2023/05/10 11:17:22;;;;;;;18.75;2.83;;;;;;;;;;4987215;28;20124;-62
2023/05/10 11:21:04;;;;;;;9.10;2.40;;;;;;;;;;4992881;28;20128;-66
2023/05/10 11:24:43;;;;;;;8.90;1.80;;;;;;;;;;4984204;28;20046;-63
2023/05/10 11:28:24;;;;;;;11.20;2.47;;;;;;;;;;4986335;28;20811;-65
2023/05/10 11:32:07;;;;;;;10.32;2.00;;;;;;;;;;4985919;28;20054;-64
2023/05/10 11:35:48;;;;;;;10.57;2.13;;;;;;;;;;4985509;28;20054;-63
2023/05/10 11:39:28;;;;;;;9.50;1.83;;;;;;;;;;4984341;28;20081;-69
2023/05/10 11:43:08;;;;;;;7.78;1.92;;;;;;;;;;4985147;28;20066;-62
2023/05/10 11:46:52;;;;;;;8.65;2.30;;;;;;;;;;4985686;28;20089;-63
2023/05/10 11:50:32;;;;;;;6.18;1.80;;;;;;;;;;4985019;28;20131;-64
2023/05/10 11:54:12;;;;;;;13.35;2.13;;;;;;;;;;4985722;28;20057;-64
2023/05/10 11:57:53;;;;;;;9.02;2.20;;;;;;;;;;4990711;28;20054;-62
2023/05/10 12:01:33;;;;;;;13.38;2.22;;;;;;;;;;4986628;28;20045;-66
2023/05/10 12:05:17;;;;;;;13.43;2.40;;;;;;;;;;4984377;28;21936;-63
2023/05/10 12:08:57;;;;;;;11.38;2.03;;;;;;;;;;4984070;28;20050;-65
2023/05/10 12:12:37;;;;;;;6.63;2.00;;;;;;;;;;4985480;28;20077;-62
2023/05/10 12:16:18;;;;;;;9.88;1.95;;;;;;;;;;4984753;28;20057;-62
2023/05/10 12:19:58;;;;;;;6.93;1.25;;;;;;;;;;4990888;28;20418;-62
2023/05/10 12:23:39;;;;;;;12.63;2.00;;;;;;;;;;4985430;28;20089;-63
2023/05/10 12:27:19;;;;;;;8.18;2.00;;;;;;;;;;4985985;28;20745;-63
2023/05/10 12:30:59;;;;;;;5.32;1.50;;;;;;;;;;4986154;28;20130;-65
2023/05/10 12:34:42;;;;;;;5.97;2.25;;;;;;;;;;4983293;28;20127;-64
2023/05/10 12:38:23;;;;;;;10.98;1.83;;;;;;;;;;4983881;28;20096;-63
2023/05/10 12:42:03;;;;;;;7.10;1.80;;;;;;;;;;4984348;28;20498;-63
2023/05/10 12:45:47;;;;;;;18.65;2.10;;;;;;;;;;4986645;28;20073;-62
2023/05/10 12:49:23;;;;;;;8.02;1.63;;;;;;;;;;4985052;28;20108;-64
2023/05/10 12:53:04;;;;;;;13.88;2.63;;;;;;;;;;4984070;28;20516;-65
2023/05/10 12:56:45;;;;;;;10.70;2.03;;;;;;;;;;4982370;28;20785;-65
2023/05/10 13:00:25;;;;;;;6.57;1.70;;;;;;;;;;4985797;28;20310;-61
2023/05/10 13:04:06;;;;;;;8.95;2.03;;;;;;;;;;4986337;28;20772;-64
2023/05/10 13:07:47;;;;;;;8.70;1.60;;;;;;;;;;4985980;28;20057;-62
2023/05/10 13:11:27;;;;;;;10.75;1.85;;;;;;;;;;4990874;28;20409;-63
2023/05/10 13:15:09;;;;;;;14.80;1.90;;;;;;;;;;4987847;28;20054;-63
2023/05/10 13:18:49;;;;;;;11.35;2.08;;;;;;;;;;4988350;28;20054;-64
2023/05/10 13:22:30;;;;;;;10.75;2.13;;;;;;;;;;4987987;28;20144;-62
2023/05/10 13:26:10;;;;;;;6.53;1.60;;;;;;;;;;4985337;28;20461;-64
2023/05/10 13:29:50;;;;;;;11.02;1.77;;;;;;;;;;4986407;28;20064;-63
2023/05/10 13:33:31;;;;;;;11.98;1.90;;;;;;;;;;4989031;28;20061;-63
2023/05/10 13:37:11;;;;;;;7.15;2.13;;;;;;;;;;4988021;28;20072;-64
2023/05/10 13:40:52;;;;;;;5.35;1.70;;;;;;;;;;4986960;28;20521;-65
2023/05/10 13:44:33;;;;;;;5.95;1.95;;;;;;;;;;4987964;28;20150;-63
2023/05/10 13:48:13;;;;;;;10.48;1.75;;;;;;;;;;4988400;28;20068;-62
2023/05/10 13:51:53;;;;;;;10.95;1.77;;;;;;;;;;4986952;28;20045;-63
2023/05/10 13:55:34;;;;;;;9.40;1.70;;;;;;;;;;4985635;28;20603;-64
2023/05/10 13:59:14;;;;;;;6.45;1.50;;;;;;;;;;4986619;28;20176;-63
2023/05/10 14:02:54;;;;;;;13.00;2.13;;;;;;;;;;4985927;28;20469;-63
2023/05/10 14:06:36;;;;;;;6.32;1.55;;;;;;;;;;4985664;28;20050;-63
2023/05/10 14:10:15;;;;;;;7.03;1.58;;;;;;;;;;4990102;28;20084;-64
2023/05/10 14:13:56;;;;;;;7.60;1.70;;;;;;;;;;4985472;28;20058;-63
2023/05/10 14:17:36;;;;;;;9.63;2.15;;;;;;;;;;4986428;28;20052;-62
2023/05/10 14:21:16;;;;;;;9.38;1.60;;;;;;;;;;4988894;28;20038;-64
2023/05/10 14:24:57;;;;;;;6.85;1.77;;;;;;;;;;4985887;28;22338;-62
2023/05/10 14:28:37;;;;;;;11.10;1.95;;;;;;;;;;4987082;28;20054;-64
2023/05/10 14:32:17;;;;;;;6.68;2.03;;;;;;;;;;4986549;28;20082;-63
2023/05/10 14:36:02;;;;;;;5.20;1.67;;;;;;;;;;4985623;28;20540;-64
2023/05/10 14:39:42;;;;;;;10.55;2.17;;;;;;;;;;4985984;28;20042;-66
2023/05/10 14:43:21;;;;;;;13.57;1.88;;;;;;;;;;4985969;28;20046;-64
2023/05/10 14:47:02;;;;;;;8.60;1.77;;;;;;;;;;4988386;28;20053;-65
2023/05/10 14:50:25;;;;;;;5.95;1.58;;;;;;;;;;4986002;28;20080;-64
2023/05/10 14:54:05;;;;;;;9.02;1.90;;;;;;;;;;4981328;28;20077;-67
2023/05/10 14:57:47;;;;;;;7.30;1.42;;;;;;;;;;4986060;28;21324;-64
2023/05/10 15:01:27;;;;;;;5.97;1.40;;;;;;;;;;4987013;28;20104;-67
2023/05/10 15:05:08;;;;;;;10.80;1.92;;;;;;;;;;4985425;28;20062;-66
2023/05/10 15:08:48;;;;;;;8.65;1.75;;;;;;;;;;4984383;28;20085;-69
2023/05/10 15:12:28;;;;;;;7.50;1.85;;;;;;;;;;4989502;28;20045;-67
2023/05/10 15:16:09;;;;;;;5.35;1.80;;;;;;;;;;4985354;28;20057;-68
2023/05/10 15:19:49;;;;;;;12.13;2.00;;;;;;;;;;4991325;28;20374;-65
2023/05/10 15:23:30;;;;;;;6.97;1.58;;;;;;;;;;5002662;28;20065;-68
2023/05/10 15:27:10;;;;;;;9.82;1.45;;;;;;;;;;4982283;28;20509;-66
2023/05/10 15:30:51;;;;;;;10.55;1.85;;;;;;;;;;4986815;28;20042;-64
2023/05/10 15:34:31;;;;;;;11.68;1.60;;;;;;;;;;4987349;28;20132;-66
2023/05/10 15:38:11;;;;;;;8.30;1.70;;;;;;;;;;4988004;28;20038;-67
2023/05/10 15:41:51;;;;;;;12.88;1.88;;;;;;;;;;4986021;28;20472;-69
2023/05/10 15:45:31;;;;;;;8.50;1.85;;;;;;;;;;4990870;28;20141;-67
2023/05/10 15:49:13;;;;;;;8.77;1.92;;;;;;;;;;4988290;28;20053;-72
2023/05/10 15:52:53;;;;;;;6.38;1.60;;;;;;;;;;4987180;28;20054;-69
2023/05/10 15:56:34;;;;;;;7.43;1.70;;;;;;;;;;4990909;28;20617;-69
2023/05/10 16:00:17;;;;;;;6.38;1.70;;;;;;;;;;4985859;28;20128;-66
2023/05/10 16:04:01;;;;;;;10.98;2.13;;;;;;;;;;4990799;28;20089;-67
2023/05/10 16:07:42;;;;;;;7.80;1.70;;;;;;;;;;4993198;28;20064;-65
2023/05/10 16:11:23;;;;;;;6.93;1.77;;;;;;;;;;4994826;28;20140;-67
2023/05/10 16:15:03;;;;;;;10.27;1.88;;;;;;;;;;4990185;28;20148;-68
2023/05/10 16:18:44;;;;;;;9.10;1.85;;;;;;;;;;4992477;28;20054;-67
2023/05/10 16:22:28;;;;;;;12.88;1.98;;;;;;;;;;4988701;28;20084;-68
2023/05/10 16:26:08;;;;;;;10.60;2.03;;;;;;;;;;4987734;28;20376;-69
2023/05/10 16:29:48;;;;;;;11.90;2.38;;;;;;;;;;4988373;28;20077;-68
2023/05/10 16:33:29;;;;;;;7.78;1.83;;;;;;;;;;4993864;28;20058;-71
2023/05/10 16:37:10;;;;;;;9.73;1.90;;;;;;;;;;4989936;28;20058;-67
2023/05/10 16:40:49;;;;;;;4.25;1.30;;;;;;;;;;4988639;28;20064;-68
2023/05/10 16:44:30;;;;;;;7.15;1.95;;;;;;;;;;4987777;28;20385;-68
2023/05/10 16:48:10;;;;;;;9.65;2.22;;;;;;;;;;4989934;28;20123;-70
2023/05/10 16:51:50;;;;;;;8.15;2.05;;;;;;;;;;4989065;28;20557;-66
2023/05/10 16:55:31;;;;;;;7.53;1.70;;;;;;;;;;4987911;28;20113;-68
2023/05/10 16:59:11;;;;;;;8.13;2.00;;;;;;;;;;4987609;28;20050;-69
2023/05/10 17:02:53;;;;;;;7.25;1.73;;;;;;;;;;4990190;28;20085;-69
2023/05/10 17:06:32;;;;;;;11.30;2.50;;;;;;;;;;4986188;28;20123;-71
2023/05/10 17:10:13;;;;;;;9.63;2.22;;;;;;;;;;4991422;28;20054;-68
2023/05/10 17:13:53;;;;;;;10.70;2.22;;;;;;;;;;4988400;28;20103;-69
2023/05/10 17:17:33;;;;;;;10.15;2.35;;;;;;;;;;4988908;28;20064;-67
2023/05/10 17:21:15;;;;;;;8.68;2.38;;;;;;;;;;4990065;28;20045;-68
2023/05/10 17:24:54;;;;;;;8.60;1.77;;;;;;;;;;4987633;28;20410;-68
2023/05/10 17:28:34;;;;;;;8.20;1.73;;;;;;;;;;4990642;28;20141;-70
2023/05/10 17:32:15;;;;;;;7.35;1.60;;;;;;;;;;4987164;28;20171;-67
2023/05/10 17:35:57;;;;;;;14.70;2.00;;;;;;;;;;4982962;28;20115;-69
2023/05/10 17:39:37;;;;;;;13.27;1.98;;;;;;;;;;4987446;28;20049;-66
2023/05/10 17:43:17;;;;;;;14.32;2.05;;;;;;;;;;4989510;28;20109;-66
2023/05/10 17:46:58;;;;;;;6.20;1.80;;;;;;;;;;4982509;28;20498;-65
2023/05/10 17:50:38;;;;;;;14.15;2.42;;;;;;;;;;4983191;28;20076;-68
2023/05/10 17:54:18;;;;;;;12.35;2.25;;;;;;;;;;4985335;28;20049;-65
2023/05/10 17:57:59;;;;;;;8.57;1.63;;;;;;;;;;4982826;28;20485;-68
2023/05/10 18:01:40;;;;;;;7.45;2.17;;;;;;;;;;4986751;28;20128;-67
2023/05/10 18:05:21;;;;;;;9.23;1.88;;;;;;;;;;4985685;28;20077;-67
2023/05/10 18:09:01;;;;;;;7.13;1.98;;;;;;;;;;4985491;28;20046;-68
2023/05/10 18:12:42;;;;;;;9.27;2.20;;;;;;;;;;4982638;28;20318;-65
2023/05/10 18:16:22;;;;;;;10.55;2.00;;;;;;;;;;4984934;28;20092;-68
2023/05/10 18:20:04;;;;;;;7.85;2.30;;;;;;;;;;4984265;28;20565;-66
2023/05/10 18:23:44;;;;;;;14.18;2.58;;;;;;;;;;4980672;28;20046;-66
2023/05/10 18:27:24;;;;;;;11.13;2.30;;;;;;;;;;4983936;28;20069;-65
2023/05/10 18:31:05;;;;;;;16.83;2.60;;;;;;;;;;4980261;28;20041;-68
2023/05/10 18:34:46;;;;;;;14.30;2.20;;;;;;;;;;4981379;28;20120;-65
2023/05/10 18:38:26;;;;;;;20.20;2.47;;;;;;;;;;4978859;28;20087;-70
2023/05/10 18:42:07;;;;;;;11.70;2.25;;;;;;;;;;4985030;28;20149;-66
2023/05/10 18:45:47;;;;;;;22.45;2.72;;;;;;;;;;4981473;28;20046;-78
2023/05/10 18:49:28;;;;;;;16.40;2.65;;;;;;;;;;4981080;28;20053;-66
2023/05/10 18:53:08;;;;;;;24.00;2.60;;;;;;;;;;4985280;28;20077;-68
2023/05/10 18:56:48;;;;;;;11.68;2.83;;;;;;;;;;4976808;28;20397;-67
2023/05/10 19:00:30;;;;;;;10.63;2.70;;;;;;;;;;4989972;28;20045;-67
2023/05/10 19:04:10;;;;;;;11.70;2.53;;;;;;;;;;4978226;28;20172;-69
2023/05/10 19:07:50;;;;;;;7.35;1.65;;;;;;;;;;4986884;28;20053;-67
2023/05/10 19:11:33;;;;;;;10.23;2.35;;;;;;;;;;4985974;28;20057;-66
2023/05/10 19:15:11;;;;;;;10.18;1.83;;;;;;;;;;4985477;28;20450;-68
2023/05/10 19:18:52;;;;;;;16.50;3.20;;;;;;;;;;4981657;28;20048;-68
2023/05/10 19:22:32;;;;;;;9.88;2.63;;;;;;;;;;4986306;28;20045;-69
2023/05/10 19:26:12;;;;;;;10.85;2.63;;;;;;;;;;4986370;28;20049;-69